Airfield :
LOGIN :

Register | Disclaimer

   EN    FR    IT 

 










Legend :    VFR   Marginal VFR   IFR   Intensive IFR   Very Intensive IFR
Visi :
Ceiling :
>= 8 km
>= 3000ft
5 to 8 km
1000 to 3000 ft
1500m to 5 km
500 to 1000 ft
800 to 1500m
200 to 500 ft
< 800m
< 200 ft
Symbols :   Thunderstorms  Fog  Heavy snow  Heavy precipitations  Wind > 20 kt
SIGMETs :     Misc.  Thunderstorms  Icing  Turbulence  Mountain Waves  Volcanic Ashes






- Airport Elevation : 424 ft
- IATA code : QGY


LHPR - Györ Per

CURRENT METAR :
  • 111815Z AUTO VRB01KT 9999 -SHRA FEW068 OVC098 //////CB 23/16 Q1017

EXPIRED METARs :
  • 111745Z AUTO 03007KT 9999 BKN044 BKN074 BKN110 //////TCU 24/16 Q1018
  • 111715Z AUTO 05008KT 020V090 9999 BKN034 BKN059 //////TCU 25/18 Q1018
  • 111645Z AUTO 09006KT 050V110 9999 SCT057 OVC089 //////TCU 25/19 Q1017 NOSIG
  • 111615Z AUTO 00000KT CAVOK 26/16 Q1017 NOSIG
  • 111545Z AUTO 22005KT 190V260 CAVOK 26/16 Q1017 NOSIG

TAF TAF LHPR
Valid from the 11 at 18:00 until the 12 at 03:00 UTC


111715Z 1118/1203 VRB02KT CAVOK
PROB40
TEMPO 1118/1121 VRB15G28KT 6000 SHRA TSRA BKN040CB
PROB40 1200/1203 5000 BR



MET'MAP, your aeronautical weather chart ! - Copyright ORBIFLY December 2007 - Disclaimer

ORBIFLY MET'MAP TEAM :

Programming & Development : Alexandra Zaïnal
Concept & original design : Baudouin d'Aumeries
Assistance for programming : Marc-Olivier Méhu
Technical & hardware support : Manuel Goepfert

Contact : metmap@orbifly.com




SOURCES & CREDITS :

   NOAA